This is the latest recevied weather packets stored in our database for station/object IU7LMH-13. If no packets are shown the sender has not sent any weather packets the latest 10 day(s).
| Time | Temp. | Humidity | Pressure | Rain* | Wind** | Luminosity | Snow |
|---|---|---|---|---|---|---|---|
| 1777489597 | 16.11° C | 88% | 1014.6 hPa | 0 mm | - | - | - |
| 1777489476 | 16.11° C | 88% | 1014.6 hPa | 0 mm | - | - | - |
| 1777489245 | 16.11° C | 88% | 1014.4 hPa | 0 mm | - | - | - |
| 1777489118 | 16.67° C | 88% | 1014.4 hPa | 0 mm | - | - | - |
| 1777488158 | 16.67° C | 87% | 1014.3 hPa | 0 mm | - | - | - |
| 1777487679 | 17.22° C | 87% | 1014.3 hPa | 0 mm | - | - | - |
| 1777486717 | 17.78° C | 86% | 1013.9 hPa | 0 mm | - | - | - |
| 1777485397 | 17.78° C | 85% | 1014.1 hPa | 0 mm | - | - | - |
| 1777484678 | 18.33° C | 84% | 1014 hPa | 0 mm | - | - | - |
| 1777484444 | 18.33° C | 83% | 1014 hPa | 0 mm | - | - | - |
| 1777484197 | 18.33° C | 83% | 1013.9 hPa | 0 mm | - | - | - |
| 1777483477 | 18.89° C | 81% | 1013.9 hPa | 0 mm | - | - | - |
| 1777482516 | 19.44° C | 79% | 1013.9 hPa | 0 mm | - | - | - |
| 1777482044 | 19.44° C | 78% | 1014 hPa | 0 mm | - | - | - |
| 1777481558 | 19.44° C | 77% | 1013.9 hPa | 0 mm | - | - | - |
| 1777480844 | 19.44° C | 75% | 1013.8 hPa | 0 mm | - | - | - |
| 1777480597 | 20° C | 74% | 1013.7 hPa | 0 mm | - | - | - |
| 1777478558 | 20.56° C | 65% | 1014.1 hPa | 0 mm | - | - | - |
| 1777477958 | 20.56° C | 66% | 1014.2 hPa | 0 mm | - | - | - |
| 1777476996 | 20.56° C | 67% | 1014.1 hPa | 0 mm | - | - | - |
| 1777476519 | 21.11° C | 64% | 1014.4 hPa | 0 mm | - | - | - |
| 1777475196 | 21.67° C | 69% | 1014.3 hPa | 0 mm | - | - | - |
| 1777474845 | 21.11° C | 71% | 1014.3 hPa | 0 mm | - | - | - |
| 1777473396 | 21.11° C | 72% | 1014.1 hPa | 0 mm | - | - | - |
| 1777472318 | 21.11° C | 69% | 1014 hPa | 0 mm | - | - | - |
* Rain latest hour (hover to see other rain measurements)
** Current wind speed in m/s (hover to see current wind gust speed)